createdAt,value
2023-04-12T00:02:28.475Z,98559.00
2023-04-12T00:04:58.952Z,98569.00
2023-04-12T00:07:28.343Z,98580.00
2023-04-12T00:09:59.232Z,98579.00
2023-04-12T00:12:28.668Z,98581.00
2023-04-12T00:14:58.031Z,98581.00
2023-04-12T00:17:27.383Z,98573.00
2023-04-12T00:19:56.935Z,98593.00
2023-04-12T00:22:32.415Z,98588.00
2023-04-12T00:25:07.412Z,98595.00
2023-04-12T00:27:46.062Z,98595.00
2023-04-12T00:30:18.668Z,98605.00
2023-04-12T00:32:53.987Z,98597.00
2023-04-12T00:35:29.548Z,98605.00
2023-04-12T00:38:11.241Z,98612.00
2023-04-12T00:40:46.950Z,98618.00
2023-04-12T00:43:22.602Z,98625.00
2023-04-12T00:45:57.710Z,98630.00
2023-04-12T00:48:38.807Z,98632.00
2023-04-12T00:51:12.053Z,98634.00
2023-04-12T00:53:48.425Z,98637.00
2023-04-12T00:56:24.630Z,98643.00
2023-04-12T00:59:01.554Z,98641.00
2023-04-12T01:01:37.325Z,98646.00
2023-04-12T01:04:15.020Z,98645.00
2023-04-12T01:07:16.986Z,98652.00
2023-04-12T01:09:46.530Z,98648.00
2023-04-12T01:12:37.054Z,98653.00
2023-04-12T01:15:16.724Z,98654.00
2023-04-12T01:18:05.086Z,98660.00
2023-04-12T01:20:52.857Z,98658.00
2023-04-12T01:23:51.400Z,98663.00
2023-04-12T01:27:02.482Z,98665.00
2023-04-12T01:29:34.426Z,98668.00
2023-04-12T01:32:06.292Z,98659.00
2023-04-12T01:34:38.440Z,98663.00
2023-04-12T01:37:17.975Z,98669.00
2023-04-12T01:39:52.025Z,98663.00
2023-04-12T01:43:04.262Z,98666.00
2023-04-12T01:45:39.711Z,98675.00
2023-04-12T01:48:12.503Z,98673.00
2023-04-12T01:50:56.238Z,98680.00
2023-04-12T01:54:00.219Z,98677.00
2023-04-12T01:56:35.916Z,98676.00
2023-04-12T01:59:06.812Z,98680.00
2023-04-12T02:01:37.105Z,98680.00
2023-04-12T02:04:08.663Z,98679.00
2023-04-12T02:06:48.780Z,98678.00
2023-04-12T02:09:20.940Z,98684.00
2023-04-12T02:12:00.562Z,98678.00
2023-04-12T02:14:36.980Z,98666.00
2023-04-12T02:17:14.174Z,98681.00
2023-04-12T02:19:46.789Z,98676.00
2023-04-12T02:22:19.109Z,98676.00
2023-04-12T02:25:14.236Z,98672.00
2023-04-12T02:27:56.075Z,98673.00
2023-04-12T02:30:28.311Z,98665.00
2023-04-12T02:32:58.952Z,98656.00
2023-04-12T02:35:32.777Z,98664.00
2023-04-12T02:38:03.490Z,98659.00
2023-04-12T02:40:35.833Z,98657.00
2023-04-12T02:43:15.881Z,98655.00
2023-04-12T02:45:53.629Z,98658.00
2023-04-12T02:48:23.382Z,98666.00
2023-04-12T02:50:52.672Z,98661.00
2023-04-12T02:53:22.789Z,98661.00
2023-04-12T02:55:52.113Z,98656.00
2023-04-12T02:58:21.459Z,98656.00
2023-04-12T03:00:51.008Z,98652.00
2023-04-12T03:03:20.792Z,98660.00
2023-04-12T03:05:50.864Z,98653.00
2023-04-12T03:08:20.550Z,98652.00
2023-04-12T03:10:50.040Z,98648.00
2023-04-12T03:13:19.376Z,98645.00
2023-04-12T03:15:50.592Z,98652.00
2023-04-12T03:18:24.544Z,98645.00
2023-04-12T03:20:53.942Z,98642.00
2023-04-12T03:23:23.198Z,98636.00
2023-04-12T03:25:52.495Z,98635.00
2023-04-12T03:28:22.646Z,98637.00
2023-04-12T03:30:52.051Z,98639.00
2023-04-12T03:33:21.588Z,98631.00
2023-04-12T03:35:51.018Z,98635.00
2023-04-12T03:38:20.329Z,98633.00
2023-04-12T03:40:49.575Z,98636.00
2023-04-12T03:43:18.883Z,98634.00
2023-04-12T03:45:48.123Z,98625.00
2023-04-12T03:48:17.689Z,98629.00
2023-04-12T03:50:47.038Z,98626.00
2023-04-12T03:53:16.580Z,98622.00
2023-04-12T03:55:45.879Z,98615.00
2023-04-12T03:58:15.712Z,98612.00
2023-04-12T04:00:45.548Z,98609.00
2023-04-12T04:03:15.266Z,98594.00
2023-04-12T04:05:45.206Z,98599.00
2023-04-12T04:08:14.815Z,98590.00
2023-04-12T04:10:44.149Z,98589.00
2023-04-12T04:13:13.488Z,98591.00
2023-04-12T04:15:42.817Z,98582.00
2023-04-12T04:18:12.075Z,98576.00
2023-04-12T04:20:41.518Z,98577.00
2023-04-12T04:23:13.390Z,98569.00
2023-04-12T04:25:42.840Z,98568.00
2023-04-12T04:28:12.173Z,98563.00
2023-04-12T04:30:43.054Z,98556.00
2023-04-12T04:33:12.370Z,98541.00
2023-04-12T04:35:44.855Z,98543.00
2023-04-12T04:38:16.659Z,98548.00
2023-04-12T04:40:47.583Z,98539.00
2023-04-12T04:43:19.556Z,98527.00
2023-04-12T04:45:55.451Z,98521.00
2023-04-12T04:48:25.568Z,98516.00
2023-04-12T04:50:55.352Z,98504.00
2023-04-12T04:53:24.893Z,98508.00
2023-04-12T04:56:01.011Z,98509.00
2023-04-12T04:58:30.313Z,98496.00
2023-04-12T05:01:00.555Z,98492.00
2023-04-12T05:03:31.017Z,98492.00
2023-04-12T05:06:00.763Z,98484.00
2023-04-12T05:08:30.126Z,98475.00
2023-04-12T05:10:59.643Z,98473.00
2023-04-12T05:13:29.067Z,98473.00
2023-04-12T05:15:58.391Z,98473.00
2023-04-12T05:18:27.716Z,98469.00
2023-04-12T05:20:56.957Z,98463.00
2023-04-12T05:23:26.214Z,98456.00
2023-04-12T05:25:55.632Z,98448.00
2023-04-12T05:28:25.002Z,98445.00
2023-04-12T05:30:54.323Z,98438.00
2023-04-12T05:33:23.609Z,98433.00
2023-04-12T05:35:52.942Z,98432.00
2023-04-12T05:38:22.587Z,98428.00
2023-04-12T05:40:52.667Z,98422.00
2023-04-12T05:43:21.902Z,98413.00
2023-04-12T05:45:53.136Z,98408.00
2023-04-12T05:48:23.344Z,98410.00
2023-04-12T05:50:56.818Z,98399.00
2023-04-12T05:53:26.110Z,98393.00
2023-04-12T05:55:55.588Z,98387.00
2023-04-12T05:58:24.852Z,98386.00
2023-04-12T06:00:55.316Z,98372.00
2023-04-12T06:03:25.114Z,98373.00
2023-04-12T06:05:55.176Z,98367.00
2023-04-12T06:08:24.659Z,98359.00
2023-04-12T06:10:53.897Z,98359.00
2023-04-12T06:13:23.314Z,98344.00
2023-04-12T06:15:52.496Z,98335.00
2023-04-12T06:18:21.877Z,98335.00
2023-04-12T06:20:51.077Z,98319.00
2023-04-12T06:23:20.524Z,98320.00
2023-04-12T06:25:51.448Z,98319.00
2023-04-12T06:28:20.810Z,98316.00
2023-04-12T06:30:50.109Z,98306.00
2023-04-12T06:33:19.301Z,98300.00
2023-04-12T06:35:48.449Z,98296.00
2023-04-12T06:38:19.328Z,98294.00
2023-04-12T06:40:49.025Z,98282.00
2023-04-12T06:43:23.782Z,98283.00
2023-04-12T06:45:53.011Z,98274.00
2023-04-12T06:48:22.344Z,98261.00
2023-04-12T06:50:51.797Z,98260.00
2023-04-12T06:53:21.028Z,98251.00
2023-04-12T06:55:50.594Z,98252.00
2023-04-12T06:58:19.842Z,98245.00
2023-04-12T07:00:49.065Z,98234.00
2023-04-12T07:03:18.720Z,98237.00
2023-04-12T07:05:48.385Z,98231.00
2023-04-12T07:08:17.627Z,98224.00
2023-04-12T07:10:46.878Z,98225.00
2023-04-12T07:13:16.208Z,98220.00
2023-04-12T07:15:47.573Z,98214.00
2023-04-12T07:18:16.862Z,98206.00
2023-04-12T07:20:49.000Z,98205.00
2023-04-12T07:23:18.481Z,98201.00
2023-04-12T07:25:47.673Z,98200.00
2023-04-12T07:28:17.104Z,98199.00
2023-04-12T07:30:46.372Z,98188.00
2023-04-12T07:33:19.724Z,98194.00
2023-04-12T07:35:49.348Z,98185.00
2023-04-12T07:38:18.680Z,98184.00
2023-04-12T07:40:50.649Z,98171.00
2023-04-12T07:43:19.844Z,98180.00
2023-04-12T07:45:49.304Z,98169.00
2023-04-12T07:48:18.603Z,98174.00
2023-04-12T07:50:47.889Z,98172.00
2023-04-12T07:53:25.795Z,98161.00
2023-04-12T07:55:56.290Z,98166.00
2023-04-12T07:58:26.718Z,98156.00
2023-04-12T08:00:55.985Z,98159.00
2023-04-12T08:03:25.522Z,98152.00
2023-04-12T08:05:54.974Z,98152.00
2023-04-12T08:08:24.720Z,98146.00
2023-04-12T08:10:54.626Z,98141.00
2023-04-12T08:13:24.227Z,98138.00
2023-04-12T08:15:53.598Z,98134.00
2023-04-12T08:18:22.788Z,98129.00
2023-04-12T08:20:52.098Z,98128.00
2023-04-12T08:23:21.632Z,98130.00
2023-04-12T08:25:50.865Z,98129.00
2023-04-12T08:28:20.028Z,98127.00
2023-04-12T08:30:49.461Z,98125.00
2023-04-12T08:33:18.922Z,98124.00
2023-04-12T08:35:48.128Z,98118.00
2023-04-12T08:38:17.520Z,98120.00
2023-04-12T08:40:48.203Z,98118.00
2023-04-12T08:43:20.263Z,98119.00
2023-04-12T08:45:51.277Z,98120.00
2023-04-12T08:48:23.662Z,98125.00
2023-04-12T08:50:54.023Z,98123.00
2023-04-12T08:53:23.453Z,98123.00
2023-04-12T08:55:53.173Z,98107.00
2023-04-12T08:58:23.437Z,98111.00
2023-04-12T09:00:53.104Z,98114.00
2023-04-12T09:03:22.985Z,98111.00
2023-04-12T09:05:52.353Z,98111.00
2023-04-12T09:08:21.499Z,98110.00
2023-04-12T09:10:50.729Z,98103.00
2023-04-12T09:13:35.601Z,98107.00
2023-04-12T09:16:05.319Z,98105.00
2023-04-12T09:18:52.206Z,98107.00
2023-04-12T09:21:21.419Z,98115.00
2023-04-12T09:24:14.858Z,98107.00
2023-04-12T09:26:44.380Z,98114.00
2023-04-12T09:29:30.009Z,98113.00
2023-04-12T09:32:10.852Z,98107.00
2023-04-12T09:34:40.716Z,98107.00
2023-04-12T09:37:18.068Z,98103.00
2023-04-12T09:39:47.694Z,98107.00
2023-04-12T09:42:32.391Z,98102.00
2023-04-12T09:45:19.685Z,98102.00
2023-04-12T09:47:49.386Z,98102.00
2023-04-12T09:50:27.525Z,98097.00
2023-04-12T09:52:58.481Z,98102.00
2023-04-12T09:55:33.016Z,98095.00
2023-04-12T09:58:07.019Z,98108.00
2023-04-12T10:00:37.812Z,98096.00
2023-04-12T10:03:08.203Z,98096.00
2023-04-12T10:05:39.471Z,98088.00
2023-04-12T10:08:09.141Z,98088.00
2023-04-12T10:10:38.549Z,98098.00
2023-04-12T10:13:11.157Z,98086.00
2023-04-12T10:15:42.658Z,98086.00
2023-04-12T10:18:17.459Z,98086.00
2023-04-12T10:20:48.781Z,98097.00
2023-04-12T10:23:20.243Z,98094.00
2023-04-12T10:25:52.536Z,98097.00
2023-04-12T10:28:23.997Z,98099.00
2023-04-12T10:30:55.540Z,98103.00
2023-04-12T10:33:31.602Z,98099.00
2023-04-12T10:36:06.395Z,98099.00
2023-04-12T10:39:11.991Z,98106.00
2023-04-12T10:42:02.445Z,98107.00
2023-04-12T10:44:31.713Z,98112.00
2023-04-12T10:47:00.980Z,98113.00
2023-04-12T10:49:30.411Z,98112.00
2023-04-12T10:52:11.729Z,98115.00
2023-04-12T10:54:41.307Z,98114.00
2023-04-12T10:57:50.423Z,98123.00
2023-04-12T11:00:19.916Z,98125.00
2023-04-12T11:03:13.307Z,98127.00
2023-04-12T11:06:16.136Z,98133.00
2023-04-12T11:08:58.329Z,98137.00
2023-04-12T11:11:29.119Z,98135.00
2023-04-12T11:14:00.286Z,98144.00
2023-04-12T11:16:29.661Z,98146.00
2023-04-12T11:18:59.989Z,98150.00
2023-04-12T11:21:30.984Z,98156.00
2023-04-12T11:24:01.275Z,98168.00
2023-04-12T11:26:36.073Z,98169.00
2023-04-12T11:29:09.971Z,98178.00
2023-04-12T11:31:40.751Z,98183.00
2023-04-12T11:34:10.038Z,98183.00
2023-04-12T11:36:41.537Z,98188.00
2023-04-12T11:39:12.402Z,98189.00
2023-04-12T11:41:51.840Z,98198.00
2023-04-12T11:44:22.821Z,98201.00
2023-04-12T11:46:53.190Z,98208.00
2023-04-12T11:49:25.965Z,98204.00
2023-04-12T11:52:05.642Z,98209.00
2023-04-12T11:54:35.717Z,98212.00
2023-04-12T11:57:05.754Z,98216.00
2023-04-12T11:59:36.645Z,98219.00
2023-04-12T12:02:21.453Z,98218.00
2023-04-12T12:04:53.347Z,98222.00
2023-04-12T12:07:24.138Z,98233.00
2023-04-12T12:09:53.928Z,98234.00
2023-04-12T12:12:26.188Z,98236.00
2023-04-12T12:15:00.207Z,98242.00
2023-04-12T12:17:29.913Z,98248.00
2023-04-12T12:20:00.475Z,98258.00
2023-04-12T12:22:29.721Z,98254.00
2023-04-12T12:25:01.360Z,98256.00
2023-04-12T12:27:49.025Z,98255.00
2023-04-12T12:30:22.080Z,98247.00
2023-04-12T12:32:57.085Z,98255.00
2023-04-12T12:35:28.535Z,98259.00
2023-04-12T12:37:59.930Z,98268.00
2023-04-12T12:40:35.742Z,98264.00
2023-04-12T12:43:05.174Z,98269.00
2023-04-12T12:45:37.012Z,98272.00
2023-04-12T12:48:07.024Z,98279.00
2023-04-12T12:50:37.395Z,98279.00
2023-04-12T12:53:07.542Z,98282.00
2023-04-12T12:55:36.731Z,98288.00
2023-04-12T12:58:07.252Z,98300.00
2023-04-12T13:00:37.794Z,98305.00
2023-04-12T13:03:07.455Z,98307.00
2023-04-12T13:05:36.892Z,98315.00
2023-04-12T13:08:06.179Z,98314.00
2023-04-12T13:10:35.341Z,98322.00
2023-04-12T13:13:05.408Z,98329.00
2023-04-12T13:15:34.652Z,98334.00
2023-04-12T13:18:04.101Z,98333.00
2023-04-12T13:20:33.445Z,98336.00
2023-04-12T13:23:02.782Z,98332.00
2023-04-12T13:25:32.021Z,98328.00
2023-04-12T13:28:01.169Z,98330.00
2023-04-12T13:30:30.378Z,98332.00
2023-04-12T13:32:59.536Z,98340.00
2023-04-12T13:35:28.890Z,98339.00
2023-04-12T13:37:58.991Z,98345.00
2023-04-12T13:40:28.263Z,98347.00
2023-04-12T13:42:57.591Z,98351.00
2023-04-12T13:45:27.038Z,98348.00
2023-04-12T13:47:56.802Z,98362.00
2023-04-12T13:50:27.087Z,98357.00
2023-04-12T13:52:56.339Z,98370.00
2023-04-12T13:55:25.672Z,98367.00
2023-04-12T13:57:54.951Z,98371.00
2023-04-12T14:00:24.926Z,98374.00
2023-04-12T14:02:54.378Z,98382.00
2023-04-12T14:05:23.719Z,98389.00
2023-04-12T14:07:53.501Z,98392.00
2023-04-12T14:10:22.789Z,98388.00
2023-04-12T14:12:52.043Z,98399.00
2023-04-12T14:15:21.443Z,98397.00
2023-04-12T14:17:50.773Z,98410.00
2023-04-12T14:20:20.241Z,98413.00
2023-04-12T14:22:49.553Z,98409.00
2023-04-12T14:25:18.983Z,98417.00
2023-04-12T14:27:48.218Z,98420.00
2023-04-12T14:30:19.085Z,98423.00
2023-04-12T14:32:50.338Z,98426.00
2023-04-12T14:35:19.980Z,98424.00
2023-04-12T14:37:49.710Z,98430.00
2023-04-12T14:40:20.211Z,98431.00
2023-04-12T14:42:49.474Z,98429.00
2023-04-12T14:45:21.877Z,98437.00
2023-04-12T14:47:51.150Z,98430.00
2023-04-12T14:50:20.554Z,98436.00
2023-04-12T14:52:50.679Z,98436.00
2023-04-12T14:55:20.261Z,98441.00
2023-04-12T14:57:49.869Z,98443.00
2023-04-12T15:00:19.716Z,98435.00
2023-04-12T15:02:49.994Z,98429.00
2023-04-12T15:05:19.690Z,98437.00
2023-04-12T15:07:49.774Z,98435.00
2023-04-12T15:10:19.771Z,98426.00
2023-04-12T15:12:49.085Z,98437.00
2023-04-12T15:15:18.421Z,98422.00
2023-04-12T15:17:48.106Z,98433.00
2023-04-12T15:20:18.215Z,98432.00
2023-04-12T15:22:47.527Z,98441.00
2023-04-12T15:25:16.775Z,98429.00
2023-04-12T15:27:46.080Z,98440.00
2023-04-12T15:30:16.466Z,98439.00
2023-04-12T15:32:47.039Z,98442.00
2023-04-12T15:35:26.531Z,98427.00
2023-04-12T15:37:57.056Z,98423.00
2023-04-12T15:40:27.967Z,98427.00
2023-04-12T15:42:57.297Z,98428.00
2023-04-12T15:45:27.630Z,98427.00
2023-04-12T15:47:57.235Z,98423.00
2023-04-12T15:50:26.968Z,98424.00
2023-04-12T15:52:56.824Z,98427.00
2023-04-12T15:55:26.086Z,98424.00
2023-04-12T15:57:55.666Z,98433.00
2023-04-12T16:00:27.509Z,98422.00
2023-04-12T16:02:58.163Z,98424.00
2023-04-12T16:05:28.416Z,98416.00
2023-04-12T16:07:57.859Z,98415.00
2023-04-12T16:10:27.881Z,98416.00
2023-04-12T16:12:58.176Z,98413.00
2023-04-12T16:15:27.764Z,98413.00
2023-04-12T16:17:57.101Z,98406.00
2023-04-12T16:20:26.531Z,98409.00
2023-04-12T16:22:56.589Z,98407.00
2023-04-12T16:25:28.949Z,98413.00
2023-04-12T16:28:00.669Z,98408.00
2023-04-12T16:30:33.834Z,98410.00
2023-04-12T16:33:03.779Z,98410.00
2023-04-12T16:35:33.213Z,98409.00
2023-04-12T16:38:03.536Z,98405.00
2023-04-12T16:40:32.788Z,98408.00
2023-04-12T16:43:02.258Z,98414.00
2023-04-12T16:45:31.644Z,98409.00
2023-04-12T16:48:00.975Z,98401.00
2023-04-12T16:50:30.453Z,98395.00
2023-04-12T16:53:00.436Z,98396.00
2023-04-12T16:55:30.967Z,98395.00
2023-04-12T16:58:00.236Z,98395.00
2023-04-12T17:00:30.244Z,98402.00
2023-04-12T17:02:59.515Z,98398.00
2023-04-12T17:05:28.858Z,98398.00
2023-04-12T17:07:58.481Z,98388.00
2023-04-12T17:10:28.397Z,98385.00
2023-04-12T17:12:59.608Z,98381.00
2023-04-12T17:15:30.844Z,98385.00
2023-04-12T17:18:12.743Z,98377.00
2023-04-12T17:20:42.678Z,98379.00
2023-04-12T17:23:12.497Z,98377.00
2023-04-12T17:25:42.727Z,98369.00
2023-04-12T17:28:12.060Z,98364.00
2023-04-12T17:30:42.048Z,98373.00
2023-04-12T17:33:11.256Z,98374.00
2023-04-12T17:35:41.712Z,98369.00
2023-04-12T17:38:12.164Z,98372.00
2023-04-12T17:40:41.620Z,98362.00
2023-04-12T17:43:11.309Z,98367.00
2023-04-12T17:45:41.036Z,98356.00
2023-04-12T17:48:15.814Z,98359.00
2023-04-12T17:50:46.396Z,98355.00
2023-04-12T17:53:15.613Z,98345.00
2023-04-12T17:55:44.871Z,98345.00
2023-04-12T17:58:14.081Z,98343.00
2023-04-12T18:00:44.592Z,98337.00
2023-04-12T18:03:14.267Z,98344.00
2023-04-12T18:05:43.945Z,98343.00
2023-04-12T18:08:13.561Z,98345.00
2023-04-12T18:10:43.101Z,98338.00
2023-04-12T18:13:12.316Z,98335.00
2023-04-12T18:15:41.557Z,98335.00
2023-04-12T18:18:10.788Z,98329.00
2023-04-12T18:20:40.022Z,98324.00
2023-04-12T18:23:09.572Z,98317.00
2023-04-12T18:25:40.145Z,98314.00
2023-04-12T18:28:10.882Z,98311.00
2023-04-12T18:30:40.104Z,98310.00
2023-04-12T18:33:09.312Z,98306.00
2023-04-12T18:35:41.096Z,98310.00
2023-04-12T18:38:11.200Z,98301.00
2023-04-12T18:40:41.027Z,98307.00
2023-04-12T18:43:13.294Z,98309.00
2023-04-12T18:45:43.243Z,98309.00
2023-04-12T18:48:12.702Z,98307.00
2023-04-12T18:50:42.053Z,98306.00
2023-04-12T18:53:12.671Z,98309.00
2023-04-12T18:55:42.055Z,98305.00
2023-04-12T18:58:11.319Z,98300.00
2023-04-12T19:00:42.245Z,98295.00
2023-04-12T19:03:11.665Z,98303.00
2023-04-12T19:05:41.331Z,98301.00
2023-04-12T19:08:13.035Z,98302.00
2023-04-12T19:10:42.396Z,98307.00
2023-04-12T19:13:11.866Z,98308.00
2023-04-12T19:15:41.205Z,98303.00
2023-04-12T19:18:10.519Z,98310.00
2023-04-12T19:20:39.835Z,98311.00
2023-04-12T19:23:10.277Z,98312.00
2023-04-12T19:25:39.757Z,98309.00
2023-04-12T19:28:11.498Z,98309.00
2023-04-12T19:30:40.900Z,98312.00
2023-04-12T19:33:10.227Z,98307.00
2023-04-12T19:35:40.337Z,98301.00
2023-04-12T19:38:11.101Z,98304.00
2023-04-12T19:40:40.270Z,98303.00
2023-04-12T19:43:09.883Z,98300.00
2023-04-12T19:45:39.224Z,98301.00
2023-04-12T19:48:08.474Z,98297.00
2023-04-12T19:50:37.896Z,98289.00
2023-04-12T19:53:07.449Z,98292.00
2023-04-12T19:55:36.904Z,98285.00
2023-04-12T19:58:06.124Z,98285.00
2023-04-12T20:00:35.445Z,98280.00
2023-04-12T20:03:04.737Z,98287.00
2023-04-12T20:05:34.297Z,98283.00
2023-04-12T20:08:03.605Z,98284.00
2023-04-12T20:10:32.845Z,98283.00
2023-04-12T20:13:02.061Z,98284.00
2023-04-12T20:15:31.975Z,98285.00
2023-04-12T20:18:01.208Z,98282.00
2023-04-12T20:20:30.353Z,98290.00
2023-04-12T20:23:00.184Z,98280.00
2023-04-12T20:25:29.704Z,98283.00
2023-04-12T20:27:59.679Z,98286.00
2023-04-12T20:30:29.598Z,98287.00
2023-04-12T20:32:59.690Z,98298.00
2023-04-12T20:35:29.200Z,98295.00
2023-04-12T20:38:01.083Z,98294.00
2023-04-12T20:40:31.142Z,98292.00
2023-04-12T20:43:01.897Z,98289.00
2023-04-12T20:45:31.336Z,98292.00
2023-04-12T20:48:00.635Z,98285.00
2023-04-12T20:50:31.420Z,98278.00
2023-04-12T20:53:00.574Z,98273.00
2023-04-12T20:55:33.574Z,98275.00
2023-04-12T20:58:05.296Z,98288.00
2023-04-12T21:00:35.570Z,98294.00
2023-04-12T21:03:05.779Z,98297.00
2023-04-12T21:05:36.060Z,98300.00
2023-04-12T21:08:07.725Z,98299.00
2023-04-12T21:10:37.036Z,98300.00
2023-04-12T21:13:06.244Z,98303.00
2023-04-12T21:15:36.323Z,98302.00
2023-04-12T21:18:05.719Z,98300.00
2023-04-12T21:20:35.508Z,98303.00
2023-04-12T21:23:07.127Z,98309.00
2023-04-12T21:25:36.846Z,98313.00
2023-04-12T21:28:07.981Z,98318.00
2023-04-12T21:30:38.175Z,98321.00
2023-04-12T21:33:07.528Z,98320.00
2023-04-12T21:35:36.808Z,98327.00
2023-04-12T21:38:06.032Z,98326.00
2023-04-12T21:40:35.327Z,98323.00
2023-04-12T21:43:04.533Z,98320.00
2023-04-12T21:45:33.826Z,98321.00
2023-04-12T21:48:02.999Z,98320.00
2023-04-12T21:50:32.838Z,98322.00
2023-04-12T21:53:02.034Z,98324.00
2023-04-12T21:55:31.302Z,98322.00
2023-04-12T21:58:00.479Z,98321.00
2023-04-12T22:00:30.159Z,98323.00
2023-04-12T22:02:59.922Z,98325.00
2023-04-12T22:05:29.798Z,98329.00
2023-04-12T22:07:59.121Z,98336.00
2023-04-12T22:10:28.627Z,98337.00
2023-04-12T22:12:58.151Z,98345.00
2023-04-12T22:15:27.409Z,98358.00
2023-04-12T22:18:00.228Z,98355.00
2023-04-12T22:20:29.586Z,98367.00
2023-04-12T22:22:59.180Z,98362.00
2023-04-12T22:25:30.556Z,98366.00
2023-04-12T22:27:59.747Z,98374.00
2023-04-12T22:30:31.506Z,98375.00
2023-04-12T22:33:00.948Z,98379.00
2023-04-12T22:35:31.043Z,98385.00
2023-04-12T22:38:00.849Z,98385.00
2023-04-12T22:40:30.583Z,98385.00
2023-04-12T22:42:59.872Z,98391.00
2023-04-12T22:45:29.673Z,98397.00
2023-04-12T22:47:58.981Z,98396.00
2023-04-12T22:50:28.260Z,98410.00
2023-04-12T22:52:58.688Z,98410.00
2023-04-12T22:55:29.044Z,98416.00
2023-04-12T22:57:58.302Z,98420.00
2023-04-12T23:00:28.714Z,98423.00
2023-04-12T23:02:58.097Z,98424.00
2023-04-12T23:05:28.281Z,98428.00
2023-04-12T23:07:57.668Z,98433.00
2023-04-12T23:10:26.996Z,98439.00
2023-04-12T23:12:56.284Z,98443.00
2023-04-12T23:15:25.890Z,98439.00
2023-04-12T23:17:55.563Z,98450.00
2023-04-12T23:20:26.131Z,98451.00
2023-04-12T23:22:57.890Z,98461.00
2023-04-12T23:25:40.183Z,98473.00
2023-04-12T23:28:15.663Z,98473.00
2023-04-12T23:30:49.302Z,98475.00
2023-04-12T23:33:21.878Z,98484.00
2023-04-12T23:35:53.382Z,98486.00
2023-04-12T23:38:36.046Z,98490.00
2023-04-12T23:41:12.610Z,98488.00
2023-04-12T23:43:42.213Z,98492.00
2023-04-12T23:46:11.770Z,98503.00
2023-04-12T23:48:41.485Z,98505.00
2023-04-12T23:51:10.864Z,98505.00
2023-04-12T23:53:40.302Z,98500.00
2023-04-12T23:56:10.221Z,98498.00
2023-04-12T23:58:39.693Z,98500.00
